Time;durP1;ratioP1;P1;durP2;ratioP2;P2;SDS_P1;SDS_P2;PMS_P1;PMS_P2;Temp;Humidity;BMP_temperature;BMP_pressure;BME280_temperature;BME280_humidity;BME280_pressure;Samples;Min_cycle;Max_cycle;Signal;HPM_P1;HPM_P2
2022/07/03 00:02:02;;;;;;;11.88;5.75;;;;;;;25.89;43.78;99025.28;4473587;32;20097;-81
2022/07/03 00:04:28;;;;;;;11.90;6.20;;;;;;;25.86;43.97;99025.63;4487795;32;20076;-81
2022/07/03 00:06:54;;;;;;;12.82;6.18;;;;;;;25.88;43.97;99023.59;4487762;32;20119;-81
2022/07/03 00:09:20;;;;;;;12.00;6.05;;;;;;;25.87;44.01;99017.34;4473566;32;20165;-81
2022/07/03 00:11:46;;;;;;;10.52;5.50;;;;;;;25.85;44.12;99026.66;4460301;32;20165;-81
2022/07/03 00:14:12;;;;;;;11.50;5.60;;;;;;;25.87;44.09;99028.16;4487700;32;20102;-81
2022/07/03 00:16:38;;;;;;;12.35;5.40;;;;;;;25.85;44.14;99016.69;4487204;32;20536;-81
2022/07/03 00:19:03;;;;;;;11.80;5.93;;;;;;;25.88;44.13;99012.78;4473408;32;20119;-81
2022/07/03 00:21:35;;;;;;;11.52;5.70;;;;;;;25.84;44.25;99006.06;4487625;32;20080;-82
2022/07/03 00:24:04;;;;;;;12.98;5.70;;;;;;;25.85;44.38;99015.84;4473466;32;20107;-82
2022/07/03 00:26:34;;;;;;;12.02;5.93;;;;;;;25.79;44.57;99016.56;4473109;32;20493;-82
2022/07/03 00:29:01;;;;;;;12.07;6.00;;;;;;;25.74;44.75;99014.38;4473500;32;20504;-82
2022/07/03 00:31:29;;;;;;;14.38;5.80;;;;;;;25.74;44.76;99006.28;4487684;32;20156;-82
2022/07/03 00:33:57;;;;;;;10.57;5.20;;;;;;;25.76;44.80;99006.12;4473334;32;20132;-83
2022/07/03 00:36:24;;;;;;;12.13;6.32;;;;;;;25.74;44.87;99013.53;4473285;32;20083;-82
2022/07/03 00:38:49;;;;;;;12.13;5.93;;;;;;;25.71;44.98;98998.56;4473423;32;20104;-82
2022/07/03 00:41:30;;;;;;;11.93;6.05;;;;;;;25.69;45.08;99005.97;4473169;32;20392;-82
2022/07/03 00:43:56;;;;;;;11.55;5.60;;;;;;;25.70;45.15;99003.09;4487634;32;20084;-82
2022/07/03 00:46:25;;;;;;;10.70;5.28;;;;;;;25.64;45.22;99000.25;4487401;32;20462;-82
2022/07/03 00:48:52;;;;;;;11.93;5.87;;;;;;;25.64;45.35;99009.19;4487474;32;20096;-82
2022/07/03 00:51:23;;;;;;;13.02;5.97;;;;;;;25.63;45.37;99001.28;4473293;32;20105;-82
2022/07/03 00:53:51;;;;;;;12.90;5.65;;;;;;;25.64;45.42;99001.09;4473329;32;20088;-82
2022/07/03 00:56:19;;;;;;;11.88;5.95;;;;;;;25.63;45.43;99004.84;4487413;32;20103;-82
2022/07/03 00:58:45;;;;;;;12.37;6.22;;;;;;;25.61;45.46;98993.38;4487434;32;20762;-82
2022/07/03 01:01:11;;;;;;;11.73;6.32;;;;;;;25.59;45.58;98998.06;4487402;32;20080;-82
2022/07/03 01:03:40;;;;;;;11.35;6.10;;;;;;;25.57;45.64;98994.72;4473147;32;20495;-82
2022/07/03 01:06:13;;;;;;;12.20;6.18;;;;;;;25.58;45.69;98984.78;4473026;32;20092;-81
2022/07/03 01:08:53;;;;;;;12.60;6.15;;;;;;;25.65;45.62;98992.00;4473061;32;20108;-81
2022/07/03 01:11:25;;;;;;;12.80;6.40;;;;;;;25.57;45.77;98991.19;4487324;32;20135;-81
2022/07/03 01:14:02;;;;;;;12.27;6.20;;;;;;;25.54;45.83;98994.25;4487192;32;20106;-81
2022/07/03 01:16:37;;;;;;;12.60;6.07;;;;;;;25.53;45.80;98988.00;4487303;32;20073;-81
2022/07/03 01:19:26;;;;;;;13.00;6.03;;;;;;;25.55;45.89;98993.22;4487299;32;20538;-81
2022/07/03 01:22:17;;;;;;;11.85;5.80;;;;;;;25.53;45.95;98988.00;4473151;32;20396;-81
2022/07/03 01:25:00;;;;;;;12.50;6.40;;;;;;;25.50;46.02;98985.66;4487327;32;20152;-81
2022/07/03 01:27:35;;;;;;;12.02;6.62;;;;;;;25.48;46.11;98985.84;4485840;32;20072;-81
2022/07/03 01:30:10;;;;;;;11.60;5.55;;;;;;;25.48;46.04;98982.31;4459827;32;20100;-81
2022/07/03 01:32:46;;;;;;;12.10;5.93;;;;;;;25.45;46.09;98972.69;4487262;32;20478;-81
2022/07/03 01:35:15;;;;;;;14.18;5.75;;;;;;;25.48;46.03;98979.59;4487188;32;20434;-81
2022/07/03 01:37:41;;;;;;;14.13;6.80;;;;;;;25.42;46.17;98974.88;4472960;32;20088;-80
2022/07/03 01:40:08;;;;;;;13.30;6.60;;;;;;;25.38;46.23;98971.72;4487320;32;20080;-81
2022/07/03 01:42:37;;;;;;;12.73;6.62;;;;;;;25.37;46.29;98966.50;4473199;32;20092;-80
2022/07/03 01:45:03;;;;;;;12.43;6.30;;;;;;;25.37;46.30;98971.87;4473333;32;20088;-80
2022/07/03 01:47:29;;;;;;;13.20;6.20;;;;;;;25.39;46.26;98972.56;4472608;32;20139;-81
2022/07/03 01:49:55;;;;;;;12.30;6.00;;;;;;;25.37;46.33;98971.87;4472873;32;20116;-81
2022/07/03 01:52:21;;;;;;;12.60;5.93;;;;;;;25.38;46.28;98971.72;4472883;32;20440;-80
2022/07/03 01:54:48;;;;;;;11.43;6.20;;;;;;;25.34;46.43;98967.66;4486967;32;20080;-81
2022/07/03 01:57:14;;;;;;;12.82;6.12;;;;;;;25.34;46.42;98964.13;4472757;32;20594;-81
2022/07/03 01:59:39;;;;;;;12.25;6.07;;;;;;;25.32;46.48;98969.69;4472920;32;20137;-80
2022/07/03 02:02:28;;;;;;;11.85;5.95;;;;;;;25.34;46.49;98964.13;4473094;32;20163;-81
2022/07/03 02:05:00;;;;;;;12.40;6.70;;;;;;;25.34;46.53;98961.44;4486924;32;20098;-81
2022/07/03 02:07:50;;;;;;;13.55;6.55;;;;;;;25.30;46.52;98961.81;4472720;32;20076;-81
2022/07/03 02:10:17;;;;;;;12.30;6.18;;;;;;;25.29;46.60;98968.19;4472785;32;20105;-81
2022/07/03 02:12:52;;;;;;;12.15;6.40;;;;;;;25.27;46.61;98964.84;4472977;32;20516;-81
2022/07/03 02:15:24;;;;;;;12.82;6.70;;;;;;;25.27;46.62;98967.53;4472827;32;20076;-81
2022/07/03 02:17:51;;;;;;;13.38;6.53;;;;;;;25.21;46.74;98962.81;4472776;32;20089;-81
2022/07/03 02:20:17;;;;;;;11.98;6.35;;;;;;;25.19;46.83;98962.16;4486673;32;20152;-80
2022/07/03 02:22:47;;;;;;;11.68;6.03;;;;;;;25.18;46.91;98973.09;4486790;32;20360;-80
2022/07/03 02:25:19;;;;;;;12.02;6.68;;;;;;;25.16;46.95;98959.78;4486619;32;20109;-80
2022/07/03 02:27:55;;;;;;;12.30;6.50;;;;;;;25.14;47.01;98959.13;4469675;32;20483;-81
2022/07/03 02:30:23;;;;;;;12.73;6.25;;;;;;;25.16;47.08;98964.34;4471014;32;20475;-80
2022/07/03 02:32:49;;;;;;;;;;;;;;;25.10;47.13;98968.56;4470065;32;20519;-81
2022/07/03 02:35:29;;;;;;;11.93;6.28;;;;;;;25.19;46.98;98956.75;4470982;32;19972;-81
2022/07/03 02:38:01;;;;;;;12.32;6.45;;;;;;;25.14;47.11;98956.41;4469350;32;20099;-81
2022/07/03 02:40:31;;;;;;;10.95;6.07;;;;;;;25.09;47.21;98956.94;4469495;32;20108;-82
2022/07/03 02:43:21;;;;;;;13.07;6.72;;;;;;;25.00;47.37;98959.84;4456617;32;20131;-81
2022/07/03 02:46:48;;;;;;;13.95;6.43;;;;;;;25.05;47.32;98966.41;4470673;32;20100;-81
2022/07/03 02:48:51;;;;;;;12.60;6.32;;;;;;;25.02;47.46;98969.44;4469578;32;20077;-81
2022/07/03 02:51:31;;;;;;;14.68;6.50;;;;;;;25.00;47.49;98965.22;4469600;32;20109;-81
2022/07/03 02:54:01;;;;;;;12.35;6.25;;;;;;;25.00;47.52;98967.94;4469489;32;20124;-81
2022/07/03 02:57:06;;;;;;;13.13;6.47;;;;;;;24.97;47.58;98971.78;4469523;32;20088;-81
2022/07/03 02:59:54;;;;;;;12.27;6.32;;;;;;;24.99;47.59;98975.16;4467750;32;20129;-81
2022/07/03 03:02:36;;;;;;;12.20;6.15;;;;;;;24.98;47.67;98969.94;4469329;32;20131;-81
2022/07/03 03:05:06;;;;;;;13.88;6.40;;;;;;;24.98;47.74;98975.34;4470472;32;20138;-81
2022/07/03 03:07:59;;;;;;;13.57;6.50;;;;;;;24.92;47.77;98964.22;4469243;32;20092;-81
2022/07/03 03:10:24;;;;;;;13.20;6.40;;;;;;;25.01;47.81;98966.91;4469374;32;20152;-81
2022/07/03 03:13:16;;;;;;;12.50;6.47;;;;;;;25.00;47.72;98959.84;4469190;32;20124;-81
2022/07/03 03:15:57;;;;;;;12.90;6.78;;;;;;;25.03;47.70;98970.25;4470391;32;20093;-81
2022/07/03 03:18:27;;;;;;;15.23;6.70;;;;;;;25.04;47.75;98966.56;4469240;32;20081;-80
2022/07/03 03:20:56;;;;;;;13.30;6.47;;;;;;;25.04;47.68;98967.41;4470196;32;20114;-80
2022/07/03 03:23:34;;;;;;;12.13;6.30;;;;;;;25.07;47.67;98974.28;4468948;32;20407;-81
2022/07/03 03:26:00;;;;;;;12.98;6.68;;;;;;;25.16;47.56;98975.13;4468968;32;20104;-82
2022/07/03 03:28:25;;;;;;;12.55;6.45;;;;;;;25.20;47.45;98982.69;4468683;32;20142;-81
2022/07/03 03:30:51;;;;;;;11.93;6.10;;;;;;;25.24;47.44;98973.25;4455734;32;20364;-81
2022/07/03 03:33:17;;;;;;;12.55;6.15;;;;;;;25.34;47.29;98972.22;4469027;32;20113;-80
2022/07/03 03:35:42;;;;;;;12.65;6.30;;;;;;;25.38;47.17;98973.56;4469971;32;20096;-80
2022/07/03 03:38:08;;;;;;;12.13;6.28;;;;;;;25.50;47.07;98964.09;4470027;32;20140;-81
2022/07/03 03:40:33;;;;;;;12.50;6.07;;;;;;;25.53;47.04;98966.41;4468592;32;20097;-80
2022/07/03 03:43:00;;;;;;;12.45;6.50;;;;;;;25.58;46.93;98969.44;4470214;32;20096;-81
2022/07/03 03:45:25;;;;;;;12.27;6.60;;;;;;;25.65;46.82;98964.16;4469013;32;20112;-81
2022/07/03 03:47:51;;;;;;;15.25;7.03;;;;;;;25.73;46.56;98956.03;4469928;32;20191;-81
2022/07/03 03:50:16;;;;;;;11.93;6.28;;;;;;;25.83;46.30;98956.66;4469448;32;20097;-81
2022/07/03 03:52:42;;;;;;;13.43;6.75;;;;;;;25.90;46.30;98956.78;4472388;32;20104;-81
2022/07/03 03:55:09;;;;;;;11.88;6.50;;;;;;;25.97;46.08;98957.78;4472430;32;20104;-81
2022/07/03 03:57:35;;;;;;;11.45;6.35;;;;;;;26.07;45.82;98950.28;4472488;32;20376;-81
2022/07/03 04:00:00;;;;;;;13.30;6.50;;;;;;;26.23;45.52;98951.19;4471126;32;20088;-81
2022/07/03 04:02:26;;;;;;;12.25;6.25;;;;;;;26.34;45.33;98952.62;4472457;32;20112;-81
2022/07/03 04:04:51;;;;;;;14.32;6.70;;;;;;;26.41;45.22;98959.00;4472337;32;20069;-81
2022/07/03 04:07:17;;;;;;;13.27;6.90;;;;;;;26.45;45.00;98965.72;4472333;32;20085;-81
2022/07/03 04:09:42;;;;;;;13.20;6.60;;;;;;;26.60;44.07;98969.31;4471084;32;20084;-80
2022/07/03 04:12:08;;;;;;;14.68;6.68;;;;;;;26.55;44.27;98970.84;4471099;32;20108;-81
2022/07/03 04:14:33;;;;;;;14.10;6.80;;;;;;;26.61;44.04;98972.84;4472446;32;20489;-80
2022/07/03 04:16:59;;;;;;;12.95;6.93;;;;;;;26.67;44.04;98977.53;4471052;32;20429;-80
2022/07/03 04:19:25;;;;;;;13.43;6.30;;;;;;;26.45;44.56;98971.94;4471112;32;20119;-81
2022/07/03 04:21:51;;;;;;;13.35;6.40;;;;;;;26.39;44.78;98971.84;4472185;32;20368;-80
2022/07/03 04:24:17;;;;;;;14.37;7.03;;;;;;;26.47;44.68;98977.16;4472185;32;20123;-80
2022/07/03 04:26:42;;;;;;;14.05;6.70;;;;;;;26.42;44.44;98974.16;4474426;32;20153;-80
2022/07/03 04:29:08;;;;;;;12.65;6.72;;;;;;;26.22;44.88;98971.94;4473637;32;20214;-80
2022/07/03 04:31:33;;;;;;;12.52;6.37;;;;;;;26.09;45.30;98961.72;4487758;32;20084;-81
2022/07/03 04:33:59;;;;;;;13.02;6.85;;;;;;;26.32;44.94;98965.47;4487857;32;20119;-80
2022/07/03 04:36:24;;;;;;;13.35;6.55;;;;;;;26.68;44.05;98968.41;4487728;32;20088;-81
2022/07/03 04:38:49;;;;;;;13.55;6.45;;;;;;;26.87;43.67;98959.78;4487798;32;20080;-80
2022/07/03 04:41:15;;;;;;;14.57;6.65;;;;;;;26.98;43.14;98958.47;4487835;32;20197;-80
2022/07/03 04:43:40;;;;;;;13.75;7.07;;;;;;;27.00;43.24;98959.13;4473388;32;20118;-81
2022/07/03 04:46:06;;;;;;;13.57;6.60;;;;;;;27.13;42.94;98957.66;4473386;32;20080;-81
2022/07/03 04:48:31;;;;;;;12.93;6.37;;;;;;;27.30;42.47;98959.16;4473524;32;20092;-81
2022/07/03 04:50:58;;;;;;;15.32;6.62;;;;;;;27.30;42.42;98961.88;4487712;32;20096;-81
2022/07/03 04:53:23;;;;;;;11.60;6.57;;;;;;;27.32;42.58;98961.69;4473563;32;20231;-81
2022/07/03 04:55:49;;;;;;;11.50;6.65;;;;;;;27.54;42.18;98949.87;4473421;32;20088;-81
2022/07/03 04:58:14;;;;;;;11.68;6.43;;;;;;;27.89;41.24;98958.25;4487640;32;20084;-81
2022/07/03 05:00:43;;;;;;;13.73;6.55;;;;;;;27.92;41.32;98955.16;4487598;32;20084;-81
2022/07/03 05:03:08;;;;;;;13.10;7.40;;;;;;;27.96;41.09;98956.44;4487486;32;20169;-81
2022/07/03 05:05:34;;;;;;;13.35;7.10;;;;;;;28.20;40.82;98952.56;4473329;32;20084;-81
2022/07/03 05:08:00;;;;;;;14.05;7.00;;;;;;;28.48;39.72;98945.50;4487572;32;20156;-80
2022/07/03 05:10:26;;;;;;;13.95;7.47;;;;;;;28.44;39.79;98945.03;4473419;32;20116;-81
2022/07/03 05:12:51;;;;;;;15.98;7.05;;;;;;;28.37;39.87;98939.56;4487618;32;20111;-81
2022/07/03 05:15:17;;;;;;;12.57;6.82;;;;;;;28.37;39.90;98947.69;4487582;32;20107;-82
2022/07/03 05:17:42;;;;;;;12.32;6.55;;;;;;;28.56;39.47;98946.22;4487607;32;20088;-81
2022/07/03 05:20:24;;;;;;;16.25;6.53;;;;;;;28.52;39.95;98939.50;4487552;32;20151;-81
2022/07/03 05:22:53;;;;;;;13.15;6.78;;;;;;;28.63;39.80;98935.44;4487611;32;20145;-81
2022/07/03 05:25:18;;;;;;;12.50;6.72;;;;;;;28.88;38.48;98929.53;4487525;32;20096;-82
2022/07/03 05:27:44;;;;;;;13.90;6.50;;;;;;;28.93;38.88;98938.75;4487233;32;20080;-82
2022/07/03 05:30:10;;;;;;;11.30;6.55;;;;;;;28.99;38.62;98934.41;4487183;32;20125;-81
2022/07/03 05:32:35;;;;;;;11.50;6.40;;;;;;;29.15;38.40;98931.44;4476746;32;20464;-82
2022/07/03 05:35:01;;;;;;;11.23;6.47;;;;;;;29.20;38.14;98941.66;4492323;31;20126;-81
2022/07/03 05:37:27;;;;;;;13.35;6.93;;;;;;;29.37;37.94;98940.28;4502933;31;20076;-81
2022/07/03 05:39:52;;;;;;;11.85;6.80;;;;;;;29.51;37.68;98943.91;4502750;31;20172;-82
2022/07/03 05:42:18;;;;;;;12.35;6.70;;;;;;;29.64;36.94;98934.16;4488550;31;20096;-81
2022/07/03 05:44:43;;;;;;;14.57;7.20;;;;;;;29.67;36.95;98942.75;4502878;31;20157;-82
2022/07/03 05:47:08;;;;;;;11.82;6.72;;;;;;;29.91;36.17;98940.53;4502716;31;20143;-81
2022/07/03 05:49:34;;;;;;;12.88;6.53;;;;;;;29.84;36.38;98939.66;4502893;31;20116;-81
2022/07/03 05:51:59;;;;;;;11.23;6.57;;;;;;;29.89;36.29;98940.72;4502717;31;20080;-80
2022/07/03 05:54:25;;;;;;;13.25;6.72;;;;;;;29.89;36.53;98942.63;4475282;31;20441;-80
2022/07/03 05:56:50;;;;;;;12.23;6.18;;;;;;;30.02;36.21;98939.06;4502741;31;20080;-79
2022/07/03 05:59:15;;;;;;;13.30;6.50;;;;;;;30.15;36.14;98944.53;4502621;31;20100;-80
2022/07/03 06:01:41;;;;;;;12.60;6.62;;;;;;;30.18;36.17;98944.13;4502710;31;20118;-79
2022/07/03 06:04:06;;;;;;;11.52;6.62;;;;;;;30.29;35.76;98948.97;4502718;31;20389;-80
2022/07/03 06:06:32;;;;;;;12.25;6.50;;;;;;;30.33;35.63;98947.53;4485124;31;20464;-80
2022/07/03 06:08:57;;;;;;;14.07;6.70;;;;;;;30.40;35.22;98957.56;4486850;31;20123;-82
2022/07/03 06:11:23;;;;;;;12.37;5.87;;;;;;;30.23;35.62;98951.66;4486899;31;20096;-87
2022/07/03 06:13:48;;;;;;;11.70;6.22;;;;;;;30.30;35.42;98949.78;4486093;31;20084;-86
2022/07/03 06:16:13;;;;;;;14.05;7.07;;;;;;;30.32;35.17;98954.00;4486847;31;20080;-85
2022/07/03 06:18:40;;;;;;;18.15;6.85;;;;;;;30.29;35.32;98953.53;4486700;31;20469;-84
2022/07/03 06:21:05;;;;;;;12.07;6.10;;;;;;;30.04;35.96;98951.44;4485672;32;20165;-85
2022/07/03 06:23:31;;;;;;;12.57;6.65;;;;;;;30.08;36.11;98958.13;4486797;31;20132;-85
2022/07/03 06:25:56;;;;;;;12.13;6.47;;;;;;;30.17;35.44;98961.47;4486380;32;20110;-84
2022/07/03 06:28:21;;;;;;;12.07;6.75;;;;;;;30.30;35.47;98966.94;4490651;31;20412;-84
2022/07/03 06:30:47;;;;;;;13.02;7.10;;;;;;;30.18;35.88;98969.41;4502409;31;20119;-84
2022/07/03 06:33:12;;;;;;;12.68;6.70;;;;;;;30.36;35.51;98966.13;4502444;31;20475;-84
2022/07/03 06:35:38;;;;;;;11.85;6.45;;;;;;;30.28;35.61;98971.72;4502338;31;20132;-84
2022/07/03 06:38:03;;;;;;;12.65;6.62;;;;;;;30.28;35.85;98955.44;4502338;31;20412;-84
2022/07/03 06:40:32;;;;;;;11.57;6.50;;;;;;;30.51;35.85;98957.78;4502267;31;20454;-84
2022/07/03 06:42:58;;;;;;;11.68;6.53;;;;;;;30.52;35.64;98958.59;4502023;31;20076;-84
2022/07/03 06:45:23;;;;;;;15.40;6.68;;;;;;;30.67;34.64;98950.25;4502315;31;20102;-83
2022/07/03 06:47:48;;;;;;;14.77;6.65;;;;;;;30.56;35.28;98949.00;4502067;31;20084;-86
2022/07/03 06:50:14;;;;;;;27.60;7.68;;;;;;;30.65;35.47;98953.16;4502147;31;20076;-86
2022/07/03 06:52:39;;;;;;;13.55;6.70;;;;;;;30.74;35.35;98953.81;4487818;31;20092;-83
2022/07/03 06:55:05;;;;;;;12.85;6.47;;;;;;;30.81;34.95;98949.22;4502059;31;20094;-83
2022/07/03 06:57:31;;;;;;;17.05;6.80;;;;;;;30.93;34.59;98950.25;4487759;31;20096;-83
2022/07/03 06:59:56;;;;;;;13.05;6.62;;;;;;;31.01;34.80;98946.47;4487569;31;20454;-83
2022/07/03 07:02:22;;;;;;;11.02;6.20;;;;;;;31.13;34.60;98942.03;4501883;31;20121;-82
2022/07/03 07:04:47;;;;;;;12.60;6.53;;;;;;;31.16;34.25;98940.81;4501876;31;20121;-81
2022/07/03 07:07:13;;;;;;;12.57;6.53;;;;;;;31.20;34.49;98941.22;4501824;31;20088;-81
2022/07/03 07:09:38;;;;;;;12.52;6.78;;;;;;;31.40;34.24;98938.41;4495217;31;20140;-85
2022/07/03 07:12:04;;;;;;;13.18;6.45;;;;;;;31.47;33.77;98940.09;4492475;31;20136;-86
2022/07/03 07:14:30;;;;;;;12.52;6.75;;;;;;;31.58;33.89;98932.28;4486626;31;20064;-84
2022/07/03 07:16:55;;;;;;;12.57;6.15;;;;;;;31.66;33.73;98930.16;4479432;32;20159;-84
2022/07/03 07:19:20;;;;;;;11.45;6.85;;;;;;;31.74;33.61;98937.25;4477594;31;20096;-85
2022/07/03 07:21:46;;;;;;;12.07;6.60;;;;;;;31.84;33.07;98932.16;4491194;31;20112;-84
2022/07/03 07:24:12;;;;;;;13.50;6.53;;;;;;;31.82;33.28;98937.00;4483347;31;20082;-86
2022/07/03 07:26:37;;;;;;;13.73;7.68;;;;;;;31.88;33.11;98927.94;4487882;31;20092;-91
2022/07/03 07:29:03;;;;;;;15.93;7.30;;;;;;;31.79;33.71;98926.53;4477849;31;20142;-88
2022/07/03 07:31:28;;;;;;;13.13;7.15;;;;;;;31.81;33.69;98929.03;4492762;31;20460;-91
2022/07/03 07:33:53;;;;;;;11.32;6.20;;;;;;;31.82;33.64;98926.09;4494857;31;20060;-87
2022/07/03 07:36:19;;;;;;;13.10;7.00;;;;;;;31.96;33.54;98929.56;4487175;31;20108;-89
2022/07/03 07:38:44;;;;;;;12.48;6.62;;;;;;;32.09;33.63;98929.53;4499260;31;20096;-86
2022/07/03 07:41:10;;;;;;;15.55;6.82;;;;;;;32.05;33.59;98928.31;4490307;31;20498;-85
2022/07/03 07:43:35;;;;;;;12.37;6.57;;;;;;;32.15;33.32;98933.25;4491928;31;20491;-85
2022/07/03 07:46:00;;;;;;;14.30;7.28;;;;;;;32.24;33.04;98925.63;4495844;31;20134;-84
2022/07/03 07:48:26;;;;;;;13.00;6.53;;;;;;;32.35;33.02;98930.38;4475656;31;20514;-85
2022/07/03 07:50:51;;;;;;;13.98;6.97;;;;;;;32.46;32.65;98937.03;4499814;31;20076;-84
2022/07/03 07:53:17;;;;;;;11.82;6.72;;;;;;;32.50;32.45;98935.50;4493912;31;20081;-85
2022/07/03 07:55:43;;;;;;;12.77;6.75;;;;;;;32.70;32.25;98941.66;4479796;32;20562;-85
2022/07/03 07:58:09;;;;;;;11.82;6.10;;;;;;;32.52;32.61;98933.41;4499593;31;20092;-86
2022/07/03 08:00:34;;;;;;;12.70;6.32;;;;;;;32.50;32.62;98933.63;4490010;31;20084;-85
2022/07/03 08:05:43;;;;;;;12.30;6.57;;;;;;;32.57;32.29;98941.78;4490728;31;20126;-84
2022/07/03 08:08:13;;;;;;;11.32;6.75;;;;;;;32.55;32.56;98941.16;4484998;31;20116;-84
2022/07/03 08:10:42;;;;;;;11.55;6.62;;;;;;;32.58;32.81;98939.88;4489774;31;20123;-85
2022/07/03 08:13:08;;;;;;;12.05;6.72;;;;;;;32.69;32.58;98940.00;4482955;31;20179;-83
2022/07/03 08:15:34;;;;;;;13.68;6.85;;;;;;;32.63;32.58;98942.78;4495369;31;20087;-84
2022/07/03 08:18:00;;;;;;;13.60;7.10;;;;;;;32.65;32.53;98940.66;4477627;32;20436;-84
2022/07/03 08:20:26;;;;;;;12.43;6.68;;;;;;;32.61;32.44;98936.72;4485629;31;20145;-86
2022/07/03 08:22:51;;;;;;;12.35;7.03;;;;;;;32.75;32.45;98934.72;4490773;31;20124;-84
2022/07/03 08:25:17;;;;;;;13.32;6.90;;;;;;;32.63;32.56;98940.06;4481882;32;20431;-85
2022/07/03 08:27:42;;;;;;;11.38;6.28;;;;;;;32.75;32.42;98926.53;4496229;31;20096;-85
2022/07/03 08:30:08;;;;;;;14.80;6.57;;;;;;;32.76;32.56;98934.50;4491084;31;20153;-84
2022/07/03 08:32:33;;;;;;;13.00;6.47;;;;;;;32.75;32.78;98935.53;4500327;31;20083;-84
2022/07/03 08:34:59;;;;;;;12.95;6.30;;;;;;;32.74;32.39;98938.47;4477291;31;20483;-84
2022/07/03 08:37:26;;;;;;;11.68;6.15;;;;;;;32.90;31.64;98932.47;4495300;31;20340;-84
2022/07/03 08:39:52;;;;;;;11.30;5.80;;;;;;;32.97;31.55;98935.94;4482870;31;20092;-85
2022/07/03 08:42:17;;;;;;;11.10;6.10;;;;;;;33.04;31.28;98920.31;4489794;31;20135;-85
2022/07/03 08:44:43;;;;;;;10.30;5.65;;;;;;;33.05;31.01;98929.34;4485676;32;20105;-86
2022/07/03 08:47:11;;;;;;;12.57;6.20;;;;;;;32.74;31.48;98930.28;4492464;31;20096;-86
2022/07/03 08:49:37;;;;;;;13.90;6.75;;;;;;;32.66;31.94;98936.88;4466570;32;20097;-83
2022/07/03 08:52:10;;;;;;;13.43;6.65;;;;;;;32.59;32.07;98931.50;4498406;31;20079;-82
2022/07/03 08:54:36;;;;;;;12.70;6.40;;;;;;;32.61;32.30;98929.38;4461216;31;20115;-84
2022/07/03 08:57:02;;;;;;;13.43;6.37;;;;;;;32.30;32.52;98932.97;4480548;32;20161;-85
2022/07/03 08:59:38;;;;;;;11.52;6.12;;;;;;;32.48;32.06;98937.62;4476708;31;20111;-84
2022/07/03 09:02:04;;;;;;;12.90;5.82;;;;;;;32.40;31.37;98937.91;4488262;31;20487;-83
2022/07/03 09:04:31;;;;;;;10.70;6.10;;;;;;;32.39;31.25;98934.31;4480723;31;20108;-81
2022/07/03 09:06:58;;;;;;;12.05;6.47;;;;;;;32.24;31.69;98929.22;4470332;32;20475;-84
2022/07/03 09:09:24;;;;;;;11.05;6.10;;;;;;;32.18;31.81;98932.84;4493878;31;20470;-84
2022/07/03 09:11:50;;;;;;;13.18;6.75;;;;;;;32.39;31.46;98926.16;4492646;31;20096;-85
2022/07/03 09:14:16;;;;;;;12.15;6.87;;;;;;;32.34;32.59;98928.72;4485380;31;20306;-86
2022/07/03 09:16:42;;;;;;;13.88;6.75;;;;;;;32.24;32.78;98929.22;4474971;31;20113;-84
2022/07/03 09:19:07;;;;;;;12.07;6.63;;;;;;;32.17;32.68;98920.25;4483215;32;20116;-81
2022/07/03 09:21:37;;;;;;;12.82;6.90;;;;;;;32.26;32.42;98918.06;4494794;31;20368;-85
2022/07/03 09:24:07;;;;;;;12.60;6.82;;;;;;;32.45;32.25;98917.09;4491202;31;20173;-84
2022/07/03 09:26:33;;;;;;;14.75;5.45;;;;;;;32.41;31.65;98917.75;4499484;31;20092;-85
2022/07/03 09:28:59;;;;;;;11.13;5.47;;;;;;;32.16;29.40;98921.28;4477161;31;20172;-85
2022/07/03 09:31:26;;;;;;;11.40;5.20;;;;;;;32.22;29.90;98920.44;4495278;31;20175;-83
2022/07/03 09:33:51;;;;;;;;;;;;;;;32.29;30.09;98918.47;4497417;31;20091;-83
2022/07/03 09:36:17;;;;;;;11.50;5.65;;;;;;;32.37;30.54;98911.06;4489452;31;19998;-84
2022/07/03 09:38:44;;;;;;;13.10;6.93;;;;;;;32.32;30.09;98904.41;4485191;32;20423;-83
2022/07/03 09:41:10;;;;;;;20.62;6.80;;;;;;;32.07;31.34;98907.09;4477805;31;20094;-84
2022/07/03 09:43:37;;;;;;;13.05;6.10;;;;;;;32.20;32.30;98908.91;4493806;31;20476;-83
2022/07/03 09:46:03;;;;;;;10.77;5.90;;;;;;;32.30;31.03;98900.25;4483564;31;20100;-84
2022/07/03 09:48:33;;;;;;;12.25;6.07;;;;;;;32.37;31.38;98894.72;4473599;31;20110;-84
2022/07/03 09:51:30;;;;;;;11.40;6.53;;;;;;;32.40;31.40;98899.75;4497854;31;20136;-83
2022/07/03 09:53:58;;;;;;;12.52;6.47;;;;;;;32.30;31.91;98887.44;4404692;32;20819;-83
2022/07/03 09:56:28;;;;;;;13.02;6.53;;;;;;;32.30;31.98;98889.34;4396894;32;20135;-83
2022/07/03 09:59:10;;;;;;;11.35;6.20;;;;;;;32.21;31.56;98880.59;4406016;32;20158;-83
2022/07/03 10:01:42;;;;;;;12.50;6.47;;;;;;;32.31;31.64;98889.09;4414536;32;20129;-83
2022/07/03 10:04:22;;;;;;;12.63;6.50;;;;;;;32.22;31.10;98895.03;4413075;32;20139;-83
2022/07/03 10:06:54;;;;;;;11.30;5.93;;;;;;;32.46;31.15;98891.50;4406693;32;20128;-83
2022/07/03 10:09:22;;;;;;;13.05;6.45;;;;;;;32.46;31.08;98882.47;4400619;32;20109;-83
2022/07/03 10:11:48;;;;;;;10.77;5.60;;;;;;;32.40;31.00;98881.47;4399783;32;20516;-84
2022/07/03 10:14:16;;;;;;;10.65;5.45;;;;;;;32.39;30.22;98871.63;4418863;32;20118;-83
2022/07/03 10:16:42;;;;;;;10.30;5.57;;;;;;;32.23;30.94;98873.03;4396597;32;20202;-83
2022/07/03 10:19:14;;;;;;;11.40;5.30;;;;;;;32.41;30.22;98874.94;4416781;32;20542;-83
2022/07/03 10:21:41;;;;;;;11.65;5.78;;;;;;;32.41;29.32;98871.41;4402154;32;20090;-82
2022/07/03 10:24:07;;;;;;;;;;;;;;;32.52;30.39;98866.03;4398247;32;20583;-84
2022/07/03 10:26:32;;;;;;;11.10;5.97;;;;;;;32.56;30.32;98865.59;4406516;32;20001;-83
2022/07/03 10:28:59;;;;;;;11.12;5.72;;;;;;;32.51;30.20;98860.84;4406236;31;20127;-83
2022/07/03 10:31:24;;;;;;;10.90;5.15;;;;;;;32.64;29.83;98855.25;4480205;32;20167;-83
2022/07/03 10:33:52;;;;;;;11.10;4.70;;;;;;;32.69;28.74;98851.88;4496062;31;20100;-84
2022/07/03 10:36:17;;;;;;;9.65;4.85;;;;;;;32.77;28.18;98848.84;4488796;31;20080;-84
2022/07/03 10:38:46;;;;;;;10.23;4.47;;;;;;;32.57;29.05;98856.38;4484325;32;20189;-83
2022/07/03 10:46:44;;;;;;;10.93;5.18;;;;;;;32.54;28.62;98838.56;4485837;32;20115;-86
2022/07/03 10:49:11;;;;;;;11.18;5.10;;;;;;;32.47;28.54;98848.69;4485866;31;20116;-85
2022/07/03 10:51:45;;;;;;;11.90;4.78;;;;;;;32.38;28.58;98839.16;4479759;31;20100;-85
2022/07/03 10:54:24;;;;;;;11.45;4.80;;;;;;;32.67;28.22;98838.44;4489359;31;20265;-85
2022/07/03 10:56:58;;;;;;;10.85;4.65;;;;;;;32.43;28.37;98834.69;4471568;32;20168;-85
2022/07/03 10:59:36;;;;;;;9.88;4.82;;;;;;;32.35;28.65;98836.84;4486300;32;20088;-85
2022/07/03 11:02:20;;;;;;;;;;;;;;;32.45;28.61;98834.44;4487962;31;20085;-85
2022/07/03 11:04:58;;;;;;;12.55;4.65;;;;;;;32.67;27.96;98824.81;4487657;32;20010;-86
2022/07/03 11:07:24;;;;;;;10.07;4.22;;;;;;;32.63;28.43;98822.78;4494608;31;20115;-85
2022/07/03 11:10:09;;;;;;;10.03;4.67;;;;;;;32.63;27.88;98818.16;4479084;32;20451;-84
2022/07/03 11:12:53;;;;;;;8.40;4.20;;;;;;;32.72;27.78;98821.41;4500680;31;20155;-84
2022/07/03 11:15:36;;;;;;;10.38;4.45;;;;;;;32.91;27.99;98814.03;4494238;31;20092;-84
2022/07/03 11:18:05;;;;;;;11.38;4.43;;;;;;;32.98;27.92;98817.53;4492098;31;20088;-85
2022/07/03 11:20:33;;;;;;;11.23;5.12;;;;;;;33.03;28.18;98812.25;4500040;31;20084;-84
2022/07/03 11:23:20;;;;;;;11.70;4.00;;;;;;;33.09;28.10;98808.59;4476720;31;20445;-84
2022/07/03 11:25:46;;;;;;;11.00;4.22;;;;;;;33.16;28.14;98813.16;4493686;31;20097;-84
2022/07/03 11:28:33;;;;;;;11.75;4.70;;;;;;;33.23;28.30;98811.16;4485239;31;20100;-84
2022/07/03 11:31:13;;;;;;;21.20;5.30;;;;;;;33.20;28.06;98807.00;4487574;32;20450;-85
2022/07/03 11:33:42;;;;;;;11.45;4.57;;;;;;;33.23;28.31;98798.34;4487344;31;20766;-85
2022/07/03 11:36:15;;;;;;;12.37;4.97;;;;;;;33.30;27.99;98799.09;4499278;31;20115;-85
2022/07/03 11:38:42;;;;;;;12.32;4.60;;;;;;;33.30;27.54;98792.78;4490252;31;20084;-84
2022/07/03 11:41:08;;;;;;;10.38;4.28;;;;;;;33.39;27.25;98796.87;4470123;32;20093;-85
2022/07/03 11:43:34;;;;;;;10.27;4.10;;;;;;;33.48;27.28;98789.19;4495436;31;20188;-84